Terminal Aerodrome Forecast
Issued by NWS

Home | Current Version | Previous Version | Text Only | Print | Product List | Glossary On
Versions: 1 2 3 4 5 6 7 8 9 10 11 12
000
FTUS44 KEPZ 042300
TAFLRU
TAF
KLRU 042320Z 0500/0524 20010KT P6SM VCTS SCT080CB SCT120 BKN250
      TEMPO 0500/0503 VRB20G35KT -TSRA BKN070CB OVC100
     FM050300 27012KT P6SM FEW100 BKN250
     FM052000 25016G27KT P6SM SCT100 SCT250=

USA.gov is the U.S. government's official web portal to all federal, state and local government web resources and services.